Trimble, Ohio
Current Conditions -  °F | °C
As of 9:55 PM on Sunday 23 Nov 2014 (Local Time) from KUNI Reporting Station
Light Rain Light Rain  
Wind Chill: 55°   Ceiling: 6000
Heat Index: 55°   Visibility: 10mi
Dew Point: 52°   Wind: 6mph
Humidity: 91%   Direction: 140°SE
Pressure: 29.47"   Gusts: NA
Location:  39.48°N, 82.08°W
Report Text: KUNI 240255Z AUTO 14005KT 10SM -RA SCT035 BKN060 OVC080 13/11 A2947 RMK AO2 P0006 60019 T01250111
Loading
Personal Weather Stations






























Interactive Weather Map New forecast layout! Learn more

10-Day Weather Forecast

Advertisements
Track Severe Weather on mobile